Main page
METAR-TAF:

METAR-TAF

Airports :

Syros, Greece

Syros Island National Airport

latitude: 37-25-16N, longitude: 024-56-54E, elevation: 73 m

Current weather observation

The report was made 51 minutes ago, at 03:50 UTC
Wind 17 kt from the North
Temperature 23°C
Humidity 57%
Pressure 1014 hPa
Visibility 10 km or more
no clouds below 1500 m and no cumulonimbus

METAR: LGSO 240350Z 35017KT CAVOK 23/14 Q1014

Time: 07:41 (04:41 UTC)


TAF: missing

Weather observations and forecasts of more than 4000 airports (METAR and TAF reports).

The available stations are represented by yellow and red dots on the map.

Hover mouse over dot to see the name of the station.

Then click to see weather observations and forecasts.

To change the map : click on the green buttons with a black cross to zoom in, on the green button with a dash to zoom out, or on the green arrows for adjacent maps.


METAR-TAF: